Time;durP1;ratioP1;P1;durP2;ratioP2;P2;SDS_P1;SDS_P2;PMS_P1;PMS_P2;Temp;Humidity;BMP_temperature;BMP_pressure;BME280_temperature;BME280_humidity;BME280_pressure;Samples;Min_cycle;Max_cycle;Signal;HPM_P1;HPM_P2
2023/11/10 00:00:42;;;;;;;4.95;1.55;;;9.80;99.90;;;;;;5015146;28;20079;-73
2023/11/10 00:03:08;;;;;;;6.78;1.55;;;9.80;99.90;;;;;;5025579;28;20033;-74
2023/11/10 00:05:35;;;;;;;5.00;1.40;;;9.80;99.90;;;;;;5019623;28;20025;-77
2023/11/10 00:08:00;;;;;;;5.82;1.25;;;9.70;99.90;;;;;;5026463;28;20357;-73
2023/11/10 00:10:27;;;;;;;5.47;1.70;;;9.70;99.90;;;;;;5013669;28;20079;-73
2023/11/10 00:12:55;;;;;;;3.80;1.60;;;9.70;99.90;;;;;;5020842;28;20047;-72
2023/11/10 00:15:24;;;;;;;4.20;1.40;;;9.70;99.90;;;;;;5023896;28;20044;-74
2023/11/10 00:17:50;;;;;;;7.18;1.77;;;9.70;99.90;;;;;;5022725;28;20469;-74
2023/11/10 00:20:17;;;;;;;3.72;1.65;;;9.80;99.90;;;;;;5019616;28;20053;-73
2023/11/10 00:22:42;;;;;;;5.50;1.75;;;9.80;99.90;;;;;;5022910;28;20030;-76
2023/11/10 00:25:09;;;;;;;3.53;2.10;;;9.80;99.90;;;;;;5023061;28;20434;-74
2023/11/10 00:27:35;;;;;;;5.97;1.90;;;9.80;99.90;;;;;;5016949;28;20693;-74
2023/11/10 00:30:02;;;;;;;4.10;1.90;;;9.80;99.90;;;;;;5026046;28;20056;-73
2023/11/10 00:32:27;;;;;;;5.50;2.20;;;9.80;99.90;;;;;;5020007;28;20028;-72
2023/11/10 00:34:53;;;;;;;6.40;2.20;;;9.70;99.90;;;;;;5022160;28;20041;-76
2023/11/10 00:37:18;;;;;;;6.38;2.55;;;9.80;99.90;;;;;;5023074;28;20065;-74
2023/11/10 00:39:44;;;;;;;6.40;2.20;;;9.80;99.90;;;;;;5024460;28;20029;-73
2023/11/10 00:42:10;;;;;;;6.65;2.60;;;9.70;99.90;;;;;;5028773;28;20070;-73
2023/11/10 00:44:36;;;;;;;4.78;2.58;;;9.70;99.90;;;;;;5022485;28;20117;-73
2023/11/10 00:47:02;;;;;;;9.15;2.85;;;9.70;99.90;;;;;;5022370;28;20025;-72
2023/11/10 00:49:27;;;;;;;6.55;2.53;;;9.70;99.90;;;;;;5023639;28;20041;-76
2023/11/10 00:51:53;;;;;;;3.63;2.15;;;9.80;99.90;;;;;;5023129;28;20481;-82
2023/11/10 00:54:19;;;;;;;7.45;2.30;;;9.80;99.90;;;;;;5022460;28;20058;-73
2023/11/10 00:56:45;;;;;;;7.75;2.63;;;10.00;99.90;;;;;;5021623;28;20029;-82
2023/11/10 00:59:11;;;;;;;11.48;2.97;;;9.90;99.90;;;;;;5027051;27;20024;-72
2023/11/10 01:01:37;;;;;;;8.98;3.03;;;10.00;99.90;;;;;;5024337;28;20112;-72
2023/11/10 01:04:04;;;;;;;3.60;2.30;;;9.90;99.90;;;;;;5027941;28;20542;-72
2023/11/10 01:06:30;;;;;;;6.22;2.28;;;9.90;99.90;;;;;;5019221;28;20466;-76
2023/11/10 01:08:58;;;;;;;5.55;2.33;;;9.90;99.90;;;;;;5028342;28;20036;-73
2023/11/10 01:11:24;;;;;;;6.00;1.92;;;10.00;99.90;;;;;;5018499;28;20033;-74
2023/11/10 01:13:50;;;;;;;6.40;2.63;;;10.00;99.90;;;;;;5024282;28;20037;-72
2023/11/10 01:16:16;;;;;;;5.72;2.80;;;9.90;99.90;;;;;;5016558;28;20091;-78
2023/11/10 01:18:42;;;;;;;7.65;2.60;;;9.90;99.90;;;;;;5023890;28;20017;-72
2023/11/10 01:21:08;;;;;;;6.82;2.20;;;9.90;99.90;;;;;;5017680;28;20543;-72
2023/11/10 01:23:34;;;;;;;8.30;2.33;;;10.00;99.90;;;;;;5024479;27;20017;-74
2023/11/10 01:25:59;;;;;;;7.22;2.03;;;10.10;99.90;;;;;;5029132;28;20029;-76
2023/11/10 01:28:25;;;;;;;8.48;2.65;;;10.10;99.90;;;;;;5020772;27;20025;-72
2023/11/10 01:30:52;;;;;;;10.52;2.40;;;10.10;99.90;;;;;;5028375;28;20032;-75
2023/11/10 01:33:18;;;;;;;6.90;2.10;;;10.10;99.90;;;;;;5023647;28;20033;-74
2023/11/10 01:35:44;;;;;;;4.55;2.10;;;10.00;99.90;;;;;;5016074;28;20049;-76
2023/11/10 01:38:10;;;;;;;6.60;1.90;;;10.00;99.90;;;;;;5024847;28;20070;-74
2023/11/10 01:40:40;;;;;;;7.75;2.13;;;9.90;99.90;;;;;;5028317;28;20108;-76
2023/11/10 01:43:14;;;;;;;5.45;2.00;;;10.00;99.90;;;;;;5025099;28;20028;-77
2023/11/10 01:45:41;;;;;;;5.72;1.90;;;10.00;99.90;;;;;;5024381;28;20062;-74
2023/11/10 01:48:08;;;;;;;4.18;2.05;;;10.00;99.90;;;;;;5024471;28;20045;-72
2023/11/10 01:50:34;;;;;;;5.25;1.60;;;10.00;99.90;;;;;;5023982;28;20090;-76
2023/11/10 01:53:03;;;;;;;7.53;1.88;;;10.00;99.90;;;;;;5023406;28;20030;-77
2023/11/10 01:55:30;;;;;;;2.90;1.50;;;9.90;99.90;;;;;;5020702;27;20356;-73
2023/11/10 01:57:57;;;;;;;5.57;1.40;;;10.00;99.90;;;;;;5018110;28;20075;-72
2023/11/10 02:00:29;;;;;;;5.90;1.60;;;9.90;99.90;;;;;;5021619;28;20036;-72
2023/11/10 02:03:04;;;;;;;4.95;1.40;;;10.00;99.90;;;;;;5023222;28;20017;-73
2023/11/10 02:05:30;;;;;;;2.30;1.25;;;10.00;99.90;;;;;;5021841;28;20030;-79
2023/11/10 02:07:56;;;;;;;7.15;1.48;;;10.00;99.90;;;;;;5027296;28;20021;-72
2023/11/10 02:10:22;;;;;;;5.30;1.58;;;10.10;99.90;;;;;;5028485;27;20071;-73
2023/11/10 02:12:57;;;;;;;7.28;1.20;;;10.00;99.90;;;;;;5027635;28;20028;-73
2023/11/10 02:15:24;;;;;;;7.55;1.60;;;9.90;99.90;;;;;;5025606;28;20061;-73
2023/11/10 02:17:51;;;;;;;4.18;1.38;;;9.90;99.90;;;;;;5024081;28;20485;-74
2023/11/10 02:20:17;;;;;;;4.15;1.58;;;9.90;99.90;;;;;;5025495;28;20473;-73
2023/11/10 02:22:44;;;;;;;5.32;1.52;;;10.00;99.90;;;;;;5030758;27;20022;-72
2023/11/10 02:25:20;;;;;;;4.55;1.23;;;10.00;99.90;;;;;;5022902;28;20104;-75
2023/11/10 02:27:46;;;;;;;2.85;1.35;;;10.00;99.90;;;;;;5022976;28;20033;-79
2023/11/10 02:30:12;;;;;;;5.20;1.63;;;9.90;99.90;;;;;;5026728;28;20029;-77
2023/11/10 02:32:39;;;;;;;4.00;1.15;;;10.00;99.90;;;;;;5029164;28;20069;-75
2023/11/10 02:35:08;;;;;;;3.38;1.35;;;10.00;99.90;;;;;;5023922;28;20158;-73
2023/11/10 02:37:34;;;;;;;3.83;1.27;;;9.90;99.90;;;;;;5025419;28;20458;-74
2023/11/10 02:40:00;;;;;;;2.95;1.20;;;9.90;99.90;;;;;;5023420;27;20486;-72
2023/11/10 02:42:25;;;;;;;3.17;1.15;;;9.80;99.90;;;;;;5028499;28;20033;-73
2023/11/10 02:44:51;;;;;;;1.48;1.27;;;9.80;99.90;;;;;;5019237;28;20094;-73
2023/11/10 02:47:17;;;;;;;3.22;1.30;;;9.80;99.90;;;;;;5020230;28;20150;-73
2023/11/10 02:49:43;;;;;;;3.85;1.63;;;9.90;99.90;;;;;;5016803;28;20057;-76
2023/11/10 02:52:10;;;;;;;6.93;1.55;;;9.80;99.90;;;;;;5018338;28;20026;-72
2023/11/10 02:54:35;;;;;;;3.13;1.50;;;9.90;99.90;;;;;;5017515;28;20069;-75
2023/11/10 02:57:01;;;;;;;7.28;1.90;;;9.80;99.90;;;;;;5014998;28;20510;-74
2023/11/10 02:59:26;;;;;;;4.20;1.50;;;9.90;99.90;;;;;;5017172;28;20053;-72
2023/11/10 03:01:52;;;;;;;7.50;1.60;;;10.00;99.90;;;;;;5019783;28;20069;-73
2023/11/10 03:04:18;;;;;;;8.07;2.15;;;9.90;99.90;;;;;;5019206;28;20473;-72
2023/11/10 03:06:44;;;;;;;5.93;1.30;;;10.00;99.90;;;;;;5019134;28;20034;-72
2023/11/10 03:09:10;;;;;;;10.10;1.70;;;9.90;99.90;;;;;;5022527;28;20029;-73
2023/11/10 03:11:35;;;;;;;11.10;1.95;;;9.90;99.90;;;;;;5023693;28;20038;-74
2023/11/10 03:14:01;;;;;;;3.38;1.27;;;10.00;99.90;;;;;;5015975;28;20022;-72
2023/11/10 03:16:27;;;;;;;6.13;1.38;;;10.00;99.90;;;;;;5023709;28;20032;-73
2023/11/10 03:18:53;;;;;;;5.43;1.67;;;10.00;99.90;;;;;;5026006;28;20146;-73
2023/11/10 03:21:20;;;;;;;3.75;1.30;;;9.90;99.90;;;;;;5017392;28;20034;-73
2023/11/10 03:23:46;;;;;;;5.35;1.40;;;9.90;99.90;;;;;;5019630;28;20466;-74
2023/11/10 03:26:12;;;;;;;2.20;0.77;;;9.90;99.90;;;;;;5017757;28;20018;-73
2023/11/10 03:28:38;;;;;;;3.63;1.10;;;9.80;99.90;;;;;;5017610;28;20107;-73
2023/11/10 03:31:07;;;;;;;4.57;1.00;;;9.90;99.90;;;;;;5020994;28;20022;-73
2023/11/10 03:33:36;;;;;;;5.50;1.40;;;10.00;99.90;;;;;;5018001;28;20028;-74
2023/11/10 03:36:06;;;;;;;4.18;1.20;;;9.90;99.90;;;;;;5016405;28;20056;-72
2023/11/10 03:38:31;;;;;;;6.03;1.27;;;9.90;99.90;;;;;;5025573;28;20414;-75
2023/11/10 03:40:58;;;;;;;5.53;1.60;;;9.90;99.90;;;;;;5025611;28;20136;-72
2023/11/10 03:43:25;;;;;;;4.88;1.30;;;9.80;99.90;;;;;;5026041;28;20025;-73
2023/11/10 03:45:51;;;;;;;3.85;1.08;;;9.90;99.90;;;;;;5017623;28;20030;-72
2023/11/10 03:48:17;;;;;;;3.78;1.30;;;9.90;99.90;;;;;;5022751;28;20025;-73
2023/11/10 03:50:43;;;;;;;2.15;1.02;;;9.90;99.90;;;;;;5015340;28;20104;-74
2023/11/10 03:53:09;;;;;;;3.72;1.08;;;9.90;99.90;;;;;;5022504;28;20370;-73
2023/11/10 03:55:34;;;;;;;4.15;1.25;;;9.90;99.90;;;;;;5019399;28;20042;-73
2023/11/10 03:58:00;;;;;;;3.92;1.00;;;9.90;99.90;;;;;;5020141;28;20086;-74
2023/11/10 04:00:26;;;;;;;4.55;1.13;;;9.90;99.90;;;;;;5024835;28;20022;-74
2023/11/10 04:02:52;;;;;;;5.15;1.33;;;9.80;99.90;;;;;;5020514;28;20430;-72
2023/11/10 04:05:18;;;;;;;9.70;1.60;;;9.90;99.90;;;;;;5018678;28;20026;-73
2023/11/10 04:07:44;;;;;;;4.78;1.00;;;9.90;99.90;;;;;;5021196;28;20563;-72
2023/11/10 04:10:10;;;;;;;5.40;1.85;;;9.90;99.90;;;;;;5016411;28;20125;-73
2023/11/10 04:12:36;;;;;;;4.80;1.40;;;9.70;99.90;;;;;;5017873;28;20021;-73
2023/11/10 04:15:03;;;;;;;3.05;1.42;;;9.90;99.90;;;;;;5021248;28;20051;-75
2023/11/10 04:17:28;;;;;;;4.22;1.27;;;9.80;99.90;;;;;;5029841;28;20082;-73
2023/11/10 04:19:54;;;;;;;3.45;1.13;;;9.80;99.90;;;;;;5019715;28;20022;-73
2023/11/10 04:22:20;;;;;;;4.03;1.42;;;9.80;99.90;;;;;;5019064;28;20033;-73
2023/11/10 04:24:45;;;;;;;6.25;1.35;;;9.70;99.90;;;;;;5018353;28;20385;-76
2023/11/10 04:27:12;;;;;;;7.50;1.67;;;9.70;99.90;;;;;;5017795;28;20034;-73
2023/11/10 04:29:39;;;;;;;6.15;1.30;;;9.70;99.90;;;;;;5022265;28;20212;-73
2023/11/10 04:32:05;;;;;;;3.75;1.40;;;9.60;99.90;;;;;;5017530;28;20034;-76
2023/11/10 04:34:31;;;;;;;5.88;1.63;;;9.70;99.90;;;;;;5018621;28;20041;-73
2023/11/10 04:36:57;;;;;;;6.47;1.55;;;9.70;99.90;;;;;;5017459;28;20037;-73
2023/11/10 04:39:23;;;;;;;5.07;1.50;;;9.70;99.90;;;;;;5026674;28;20022;-73
2023/11/10 04:41:49;;;;;;;4.25;1.23;;;9.70;99.90;;;;;;5015117;28;20517;-73
2023/11/10 04:44:16;;;;;;;4.43;1.55;;;9.70;99.90;;;;;;5018560;28;20034;-73
2023/11/10 04:46:42;;;;;;;5.40;1.48;;;9.70;99.90;;;;;;5024894;28;20028;-73
2023/11/10 04:49:10;;;;;;;6.20;1.77;;;9.70;99.90;;;;;;5022862;28;20025;-72
2023/11/10 04:51:36;;;;;;;3.13;1.33;;;9.50;99.90;;;;;;5025222;28;20025;-73
2023/11/10 04:54:03;;;;;;;4.75;1.73;;;9.60;99.90;;;;;;5018293;28;20113;-73
2023/11/10 04:56:28;;;;;;;4.40;1.33;;;9.50;99.90;;;;;;5017640;28;20122;-73
2023/11/10 04:58:54;;;;;;;7.07;1.10;;;9.70;99.90;;;;;;5020475;28;20855;-73
2023/11/10 05:01:20;;;;;;;5.05;1.67;;;9.60;99.90;;;;;;5013627;28;20152;-73
2023/11/10 05:03:46;;;;;;;6.38;1.80;;;9.50;99.90;;;;;;5016866;28;20026;-73
2023/11/10 05:06:12;;;;;;;6.78;1.30;;;9.50;99.90;;;;;;5016527;28;20030;-73
2023/11/10 05:08:37;;;;;;;6.55;1.55;;;9.50;99.90;;;;;;5016801;28;20038;-73
2023/11/10 05:11:04;;;;;;;8.65;1.70;;;9.40;99.90;;;;;;5019495;28;20026;-73
2023/11/10 05:13:30;;;;;;;4.95;1.50;;;9.40;99.90;;;;;;5017508;28;20026;-75
2023/11/10 05:15:55;;;;;;;5.32;1.52;;;9.30;99.90;;;;;;5016746;28;20109;-73
2023/11/10 05:18:27;;;;;;;6.35;1.90;;;9.30;99.90;;;;;;5015896;28;20053;-73
2023/11/10 05:20:54;;;;;;;3.85;1.25;;;9.20;99.90;;;;;;5020868;28;20076;-78
2023/11/10 05:23:20;;;;;;;8.20;1.35;;;9.40;99.90;;;;;;5012845;28;20022;-76
2023/11/10 05:25:46;;;;;;;3.88;1.20;;;9.30;99.90;;;;;;5012415;28;20090;-75
2023/11/10 05:28:12;;;;;;;3.00;1.42;;;9.30;99.90;;;;;;5019079;28;20471;-75
2023/11/10 05:30:38;;;;;;;3.42;1.25;;;9.40;99.90;;;;;;5028447;27;20498;-74
2023/11/10 05:33:04;;;;;;;7.32;1.63;;;9.30;99.90;;;;;;5022660;28;20025;-73
2023/11/10 05:35:29;;;;;;;5.70;1.33;;;9.20;99.90;;;;;;5018855;28;20038;-73
2023/11/10 05:37:55;;;;;;;3.38;1.33;;;9.30;99.90;;;;;;5025633;28;20573;-73
2023/11/10 05:40:21;;;;;;;4.15;1.40;;;9.30;99.90;;;;;;5025122;28;20040;-76
2023/11/10 05:42:47;;;;;;;5.15;1.13;;;9.30;99.90;;;;;;5027420;28;20026;-73
2023/11/10 05:45:12;;;;;;;7.35;1.30;;;9.30;99.90;;;;;;5018241;28;20065;-74
2023/11/10 05:47:38;;;;;;;4.28;1.00;;;9.20;99.90;;;;;;5025888;28;20025;-74
2023/11/10 05:50:06;;;;;;;5.20;1.30;;;9.20;99.90;;;;;;5023646;28;20509;-73
2023/11/10 05:52:31;;;;;;;5.63;1.33;;;9.10;99.90;;;;;;5015402;28;20022;-73
2023/11/10 05:54:58;;;;;;;6.45;1.65;;;9.10;99.90;;;;;;5021434;28;20434;-73
2023/11/10 05:57:25;;;;;;;6.28;1.55;;;9.20;99.90;;;;;;5022532;28;20025;-73
2023/11/10 05:59:51;;;;;;;6.20;1.33;;;9.10;99.90;;;;;;5026771;28;20022;-75
2023/11/10 06:02:17;;;;;;;8.85;1.48;;;9.00;99.90;;;;;;5016214;28;20029;-74
2023/11/10 06:04:44;;;;;;;6.47;1.30;;;9.10;99.90;;;;;;5023154;28;20026;-74
2023/11/10 06:07:11;;;;;;;6.20;1.73;;;9.10;99.90;;;;;;5016046;28;20108;-73
2023/11/10 06:09:37;;;;;;;6.63;1.38;;;9.10;99.90;;;;;;5024240;28;20030;-73
2023/11/10 06:12:06;;;;;;;7.00;1.52;;;9.10;99.90;;;;;;5021876;28;20501;-73
2023/11/10 06:14:31;;;;;;;6.65;1.20;;;9.00;99.90;;;;;;5019437;28;20030;-73
2023/11/10 06:16:57;;;;;;;7.30;1.27;;;9.00;99.90;;;;;;5024309;28;20482;-73
2023/11/10 06:19:23;;;;;;;4.32;1.10;;;9.00;99.90;;;;;;5024046;28;20029;-73
2023/11/10 06:21:50;;;;;;;5.47;1.35;;;8.90;99.90;;;;;;5021700;28;20511;-73
2023/11/10 06:24:16;;;;;;;5.38;1.27;;;8.90;99.90;;;;;;5019844;28;20037;-73
2023/11/10 06:26:42;;;;;;;8.82;1.80;;;9.00;99.90;;;;;;5020853;28;20065;-76
2023/11/10 06:29:08;;;;;;;4.45;1.52;;;8.90;99.90;;;;;;5024734;28;20049;-73
2023/11/10 06:31:34;;;;;;;8.13;1.63;;;8.90;99.90;;;;;;5026419;28;20029;-73
2023/11/10 06:34:00;;;;;;;3.45;1.52;;;9.00;99.90;;;;;;5018913;28;20101;-79
2023/11/10 06:36:26;;;;;;;4.85;1.48;;;9.00;99.90;;;;;;5019109;28;20463;-76
2023/11/10 06:38:51;;;;;;;6.03;1.60;;;9.00;99.90;;;;;;5019780;28;20532;-73
2023/11/10 06:41:18;;;;;;;6.38;1.50;;;8.90;99.90;;;;;;5020376;28;20475;-74
2023/11/10 06:43:45;;;;;;;6.78;1.45;;;8.80;99.90;;;;;;5028203;28;20026;-73
2023/11/10 06:46:17;;;;;;;7.55;1.55;;;8.80;99.90;;;;;;5024687;28;20045;-73
2023/11/10 06:48:43;;;;;;;6.45;1.60;;;8.80;99.90;;;;;;5022870;28;20025;-73
2023/11/10 06:51:08;;;;;;;5.32;1.60;;;8.90;99.90;;;;;;5020579;28;20034;-74
2023/11/10 06:53:34;;;;;;;4.07;1.60;;;8.90;99.90;;;;;;5020109;28;20539;-73
2023/11/10 06:56:00;;;;;;;7.28;1.60;;;8.80;99.90;;;;;;5023268;28;20155;-72
2023/11/10 06:58:26;;;;;;;5.75;1.60;;;8.80;99.90;;;;;;5023551;28;20571;-73
2023/11/10 07:00:51;;;;;;;5.57;1.65;;;8.80;99.90;;;;;;5017876;28;20534;-73
2023/11/10 07:03:19;;;;;;;6.10;1.73;;;8.90;99.90;;;;;;5023047;28;20505;-78
2023/11/10 07:05:45;;;;;;;7.78;1.70;;;8.90;99.90;;;;;;5018070;28;20061;-72
2023/11/10 07:08:11;;;;;;;6.55;2.42;;;9.00;99.90;;;;;;5018430;28;20021;-73
2023/11/10 07:10:43;;;;;;;7.63;1.90;;;8.90;99.90;;;;;;5023028;27;20021;-74
2023/11/10 07:13:14;;;;;;;;;;;8.90;99.90;;;;;;5021718;28;20431;-74
2023/11/10 07:15:40;;;;;;;8.82;2.05;;;8.90;99.90;;;;;;5015393;28;19922;-77
2023/11/10 07:18:06;;;;;;;9.50;1.92;;;9.10;99.90;;;;;;5016232;28;20032;-72
2023/11/10 07:20:33;;;;;;;6.53;1.98;;;9.10;99.90;;;;;;5026084;28;20038;-78
2023/11/10 07:22:59;;;;;;;6.80;2.72;;;9.10;99.90;;;;;;5027465;28;20022;-76
2023/11/10 07:25:28;;;;;;;10.02;1.77;;;9.10;99.90;;;;;;5023483;28;20037;-74
2023/11/10 07:27:54;;;;;;;8.75;1.90;;;9.10;99.90;;;;;;5019321;28;20028;-73
2023/11/10 07:30:21;;;;;;;6.90;1.90;;;9.10;99.90;;;;;;5019626;28;20034;-75
2023/11/10 07:32:47;;;;;;;13.38;2.35;;;9.10;99.90;;;;;;5018760;28;20022;-73
2023/11/10 07:35:13;;;;;;;5.40;1.83;;;9.10;99.90;;;;;;5020346;28;20061;-72
2023/11/10 07:37:44;;;;;;;9.43;1.77;;;9.20;99.90;;;;;;5019160;28;20018;-73
2023/11/10 07:40:18;;;;;;;8.10;1.85;;;9.10;99.90;;;;;;5024976;28;20077;-74
2023/11/10 07:42:46;;;;;;;7.55;2.15;;;9.10;99.90;;;;;;5016900;28;20026;-74
2023/11/10 07:45:14;;;;;;;6.38;1.83;;;9.20;99.90;;;;;;5023501;28;20028;-76
2023/11/10 07:47:49;;;;;;;9.68;2.20;;;9.20;99.90;;;;;;5018581;28;20037;-75
2023/11/10 07:50:18;;;;;;;14.15;2.92;;;9.20;99.90;;;;;;5018997;28;20026;-78
2023/11/10 07:52:48;;;;;;;9.00;2.72;;;9.20;99.90;;;;;;5016555;28;20029;-79
2023/11/10 07:55:14;;;;;;;8.32;1.90;;;9.30;99.90;;;;;;5013411;28;20042;-76
2023/11/10 07:57:43;;;;;;;8.77;2.22;;;9.40;99.90;;;;;;5015642;28;20022;-74
2023/11/10 08:00:13;;;;;;;6.13;1.85;;;9.30;99.90;;;;;;5016106;28;20042;-78
2023/11/10 08:02:40;;;;;;;9.95;2.30;;;9.40;99.90;;;;;;5015405;28;20026;-74
2023/11/10 08:05:06;;;;;;;10.63;2.05;;;9.40;99.90;;;;;;5021971;28;20424;-74
2023/11/10 08:07:32;;;;;;;11.00;2.30;;;9.50;99.90;;;;;;5015985;28;20118;-77
2023/11/10 08:09:59;;;;;;;12.25;2.65;;;9.60;99.90;;;;;;5020125;28;20114;-76
2023/11/10 08:12:25;;;;;;;8.75;1.90;;;9.60;99.90;;;;;;5015028;28;20030;-74
2023/11/10 08:14:50;;;;;;;10.88;2.40;;;9.60;99.90;;;;;;5019352;28;20098;-78
2023/11/10 08:17:16;;;;;;;6.68;2.08;;;9.60;99.90;;;;;;5017429;28;20033;-74
2023/11/10 08:19:44;;;;;;;8.43;2.10;;;9.70;99.90;;;;;;5016641;28;20117;-75
2023/11/10 08:22:10;;;;;;;11.88;3.17;;;9.80;99.90;;;;;;5018670;28;20030;-77
2023/11/10 08:24:38;;;;;;;14.00;2.03;;;9.70;99.90;;;;;;5016955;28;20061;-80
2023/11/10 08:27:04;;;;;;;12.07;2.42;;;9.80;99.90;;;;;;5021852;28;20533;-74
2023/11/10 08:29:29;;;;;;;11.50;2.60;;;9.80;99.90;;;;;;5017230;28;20049;-76
2023/11/10 08:31:55;;;;;;;7.95;2.20;;;9.90;99.90;;;;;;5021726;28;20076;-75
2023/11/10 08:34:21;;;;;;;10.25;2.30;;;9.80;99.90;;;;;;5031098;28;20105;-74
2023/11/10 08:36:50;;;;;;;10.55;2.53;;;9.80;99.90;;;;;;5018661;28;20443;-79
2023/11/10 08:39:18;;;;;;;11.32;2.53;;;9.80;99.90;;;;;;5016374;28;20041;-78
2023/11/10 08:41:48;;;;;;;10.55;2.38;;;9.90;99.90;;;;;;5016379;28;20065;-74
2023/11/10 08:44:14;;;;;;;20.48;2.70;;;9.90;99.90;;;;;;5018331;28;20049;-75
2023/11/10 08:46:43;;;;;;;8.23;2.50;;;9.80;99.90;;;;;;5019690;28;20022;-77
2023/11/10 08:49:09;;;;;;;11.85;2.25;;;9.90;99.90;;;;;;5018664;28;20081;-75
2023/11/10 08:51:35;;;;;;;11.95;2.20;;;9.90;99.90;;;;;;5015583;28;20470;-76
2023/11/10 08:54:00;;;;;;;6.75;2.67;;;9.80;99.90;;;;;;5018814;28;20458;-78
2023/11/10 08:56:28;;;;;;;13.73;2.97;;;9.80;99.90;;;;;;5015955;28;20037;-76
2023/11/10 08:58:54;;;;;;;9.35;2.22;;;9.90;99.90;;;;;;5018575;28;20036;-74
2023/11/10 09:01:19;;;;;;;11.75;2.72;;;9.90;99.90;;;;;;5025822;28;20033;-74
2023/11/10 09:03:45;;;;;;;9.88;2.10;;;10.00;99.90;;;;;;5020315;28;20053;-74
2023/11/10 09:06:11;;;;;;;9.07;1.80;;;10.00;99.90;;;;;;5024254;28;20102;-77
2023/11/10 09:08:37;;;;;;;9.00;2.22;;;10.00;99.90;;;;;;5006406;27;20045;-74
2023/11/10 09:11:02;;;;;;;7.72;2.13;;;10.00;99.90;;;;;;5020927;27;20101;-75
2023/11/10 09:13:28;;;;;;;11.38;2.33;;;10.00;99.90;;;;;;5025689;27;20110;-76
2023/11/10 09:15:54;;;;;;;8.52;1.95;;;10.00;99.90;;;;;;5029879;27;20030;-75
2023/11/10 09:18:19;;;;;;;14.13;2.45;;;10.00;99.90;;;;;;5030673;27;20033;-78
2023/11/10 09:20:46;;;;;;;7.32;1.88;;;10.00;99.90;;;;;;5022787;28;21305;-76
2023/11/10 09:23:12;;;;;;;7.28;1.80;;;10.00;99.90;;;;;;5027163;28;20031;-76
2023/11/10 09:25:38;;;;;;;7.75;1.90;;;10.10;99.90;;;;;;5023125;28;20025;-78
2023/11/10 09:28:05;;;;;;;9.13;1.98;;;10.10;99.90;;;;;;5026981;28;20025;-77
2023/11/10 09:30:33;;;;;;;8.40;1.92;;;10.10;99.90;;;;;;5029902;27;20072;-74
2023/11/10 09:32:59;;;;;;;9.13;1.20;;;10.10;99.90;;;;;;5020192;27;20032;-75
2023/11/10 09:35:26;;;;;;;8.68;1.70;;;10.10;99.90;;;;;;5027757;27;20412;-78
2023/11/10 09:37:52;;;;;;;12.27;2.67;;;10.20;99.90;;;;;;5022405;27;20018;-75
2023/11/10 09:40:21;;;;;;;8.77;2.08;;;10.20;99.90;;;;;;5026697;27;20029;-75
2023/11/10 09:42:47;;;;;;;9.45;2.05;;;10.20;99.90;;;;;;5017845;28;20033;-76
2023/11/10 09:45:15;;;;;;;8.18;2.55;;;10.20;99.90;;;;;;5021504;27;20025;-74
2023/11/10 09:47:41;;;;;;;4.38;1.60;;;10.20;99.90;;;;;;5027239;27;20085;-73
2023/11/10 09:50:09;;;;;;;7.28;1.70;;;10.20;99.90;;;;;;5027650;28;20029;-76
2023/11/10 09:52:38;;;;;;;8.93;1.73;;;10.10;99.90;;;;;;5026262;27;20529;-74
2023/11/10 09:55:05;;;;;;;7.10;1.40;;;10.10;99.90;;;;;;5029715;28;20515;-72
2023/11/10 09:57:30;;;;;;;8.43;2.40;;;10.20;99.90;;;;;;5027944;27;20173;-72
2023/11/10 09:59:57;;;;;;;6.05;1.63;;;10.20;99.90;;;;;;5021829;27;20655;-73
2023/11/10 10:02:23;;;;;;;7.72;1.60;;;10.10;99.90;;;;;;5020336;28;20491;-73
2023/11/10 10:04:49;;;;;;;5.97;1.50;;;10.10;99.90;;;;;;5022133;28;20060;-72
2023/11/10 10:07:16;;;;;;;8.88;1.95;;;10.20;99.90;;;;;;5027447;27;20061;-73
2023/11/10 10:09:43;;;;;;;8.20;1.40;;;10.20;99.90;;;;;;5027367;27;20094;-71
2023/11/10 10:12:11;;;;;;;5.72;1.40;;;10.10;99.90;;;;;;5019094;28;20074;-73
2023/11/10 10:14:51;;;;;;;8.02;1.40;;;10.10;99.90;;;;;;5027644;27;20082;-74
2023/11/10 10:17:17;;;;;;;4.28;1.58;;;10.10;99.90;;;;;;5025816;27;20034;-78
2023/11/10 10:19:43;;;;;;;10.07;2.00;;;10.10;99.90;;;;;;5023563;28;20613;-72
2023/11/10 10:22:09;;;;;;;7.35;1.80;;;10.00;99.90;;;;;;5022827;28;20043;-72
2023/11/10 10:24:36;;;;;;;4.65;1.80;;;10.10;99.90;;;;;;5028682;27;20034;-71
2023/11/10 10:27:02;;;;;;;7.90;2.08;;;10.20;99.90;;;;;;5023238;28;20022;-72
2023/11/10 10:29:29;;;;;;;5.72;1.83;;;10.10;99.90;;;;;;5024977;27;20062;-73
2023/11/10 10:31:56;;;;;;;5.53;1.98;;;10.10;99.90;;;;;;5027803;27;20033;-74
2023/11/10 10:34:21;;;;;;;6.95;2.10;;;10.10;99.90;;;;;;5024833;27;20021;-72
2023/11/10 10:36:48;;;;;;;7.70;1.80;;;10.10;99.90;;;;;;5024021;27;20089;-73
2023/11/10 10:39:17;;;;;;;8.60;2.35;;;10.10;99.90;;;;;;5015450;28;20030;-73
2023/11/10 10:41:44;;;;;;;7.97;1.67;;;10.10;99.90;;;;;;5025206;28;20025;-73
2023/11/10 10:44:10;;;;;;;4.50;1.85;;;10.10;99.90;;;;;;5023957;28;20022;-73
2023/11/10 10:46:38;;;;;;;7.97;2.15;;;10.10;99.90;;;;;;5026889;27;20584;-73
2023/11/10 10:49:06;;;;;;;11.20;1.98;;;10.10;99.90;;;;;;5025791;27;20494;-73
2023/11/10 10:51:36;;;;;;;9.38;1.98;;;10.10;99.90;;;;;;5030697;27;20029;-75
2023/11/10 10:54:05;;;;;;;7.88;2.25;;;10.10;99.90;;;;;;5029151;27;20113;-71
2023/11/10 10:56:32;;;;;;;6.07;2.00;;;10.10;99.90;;;;;;5027472;27;20041;-73
2023/11/10 10:58:59;;;;;;;12.05;2.15;;;10.20;99.90;;;;;;5023876;28;20024;-76
2023/11/10 11:01:26;;;;;;;9.18;2.03;;;10.20;99.90;;;;;;5025309;28;20025;-72
2023/11/10 11:04:14;;;;;;;6.55;1.77;;;10.10;99.90;;;;;;5020670;28;20672;-75
2023/11/10 11:06:48;;;;;;;7.15;1.88;;;10.10;99.90;;;;;;5022594;28;20026;-72
2023/11/10 11:09:32;;;;;;;9.02;1.77;;;10.20;99.90;;;;;;5017628;28;20025;-79
2023/11/10 11:12:14;;;;;;;4.00;1.67;;;10.30;99.90;;;;;;5026265;27;20036;-74
2023/11/10 11:14:52;;;;;;;4.28;1.75;;;10.10;99.90;;;;;;5022916;28;20609;-76
2023/11/10 11:17:52;;;;;;;7.47;1.52;;;10.20;99.90;;;;;;5024230;28;20478;-71
2023/11/10 11:20:19;;;;;;;11.25;2.08;;;10.20;99.90;;;;;;5027995;28;20116;-72
2023/11/10 11:22:45;;;;;;;6.85;1.50;;;10.30;99.90;;;;;;5025305;27;20025;-72
2023/11/10 11:25:12;;;;;;;6.07;1.77;;;10.30;99.90;;;;;;5020969;28;20036;-73
2023/11/10 11:27:38;;;;;;;3.83;1.25;;;10.30;99.90;;;;;;5023355;28;20026;-72
2023/11/10 11:30:08;;;;;;;5.93;1.17;;;10.40;99.90;;;;;;5028438;28;20036;-75
2023/11/10 11:32:43;;;;;;;6.78;1.38;;;10.40;99.90;;;;;;5030477;27;20015;-73
2023/11/10 11:35:16;;;;;;;4.10;1.27;;;10.40;99.90;;;;;;5021536;28;20053;-72
2023/11/10 11:37:43;;;;;;;3.70;1.52;;;10.40;99.90;;;;;;5017160;28;20025;-70
2023/11/10 11:40:10;;;;;;;5.20;1.30;;;10.40;99.90;;;;;;5023942;28;20029;-72
2023/11/10 11:42:41;;;;;;;2.63;1.05;;;10.40;99.90;;;;;;5020822;28;20473;-74
2023/11/10 11:45:14;;;;;;;3.58;1.00;;;10.40;99.90;;;;;;5027442;28;20456;-71
2023/11/10 11:47:41;;;;;;;5.30;1.02;;;10.40;99.90;;;;;;5022872;27;20262;-71
2023/11/10 11:50:09;;;;;;;3.83;1.08;;;10.40;99.90;;;;;;5020791;27;20033;-72
2023/11/10 11:52:35;;;;;;;1.92;1.30;;;10.50;99.90;;;;;;5026091;27;20480;-71
2023/11/10 11:55:02;;;;;;;4.53;1.20;;;10.60;99.90;;;;;;5022277;28;20025;-72
2023/11/10 11:57:30;;;;;;;7.72;1.20;;;10.40;99.90;;;;;;5022452;28;20025;-72
2023/11/10 11:59:55;;;;;;;2.63;1.00;;;10.40;99.90;;;;;;5019355;28;20021;-72
2023/11/10 12:02:21;;;;;;;3.35;0.90;;;10.30;99.90;;;;;;5033105;28;20029;-75
2023/11/10 12:04:47;;;;;;;5.47;1.02;;;10.40;99.90;;;;;;5017569;28;20030;-72
2023/11/10 12:07:34;;;;;;;3.25;1.08;;;10.40;99.90;;;;;;5022430;28;20024;-71
2023/11/10 12:10:03;;;;;;;1.83;0.77;;;10.30;99.90;;;;;;5031195;27;20442;-72
2023/11/10 12:12:28;;;;;;;2.53;0.85;;;10.30;99.90;;;;;;5027020;28;20488;-74
2023/11/10 12:14:55;;;;;;;2.60;0.55;;;10.40;99.90;;;;;;5015939;28;20045;-73
2023/11/10 12:17:23;;;;;;;5.05;1.20;;;10.30;99.90;;;;;;5024016;28;20020;-73
2023/11/10 12:19:48;;;;;;;2.95;1.10;;;10.30;99.90;;;;;;5023168;28;20392;-74
2023/11/10 12:22:16;;;;;;;1.83;1.00;;;10.40;99.90;;;;;;5027626;28;20025;-76
2023/11/10 12:24:43;;;;;;;3.05;1.20;;;10.40;99.90;;;;;;5025424;28;20030;-72
2023/11/10 12:27:09;;;;;;;3.40;1.10;;;10.40;99.90;;;;;;5024674;28;20137;-74
2023/11/10 12:29:35;;;;;;;3.55;0.73;;;10.40;99.90;;;;;;5020565;28;20066;-76
2023/11/10 12:32:02;;;;;;;3.28;0.85;;;10.40;99.90;;;;;;5019889;28;20034;-76
2023/11/10 12:34:28;;;;;;;2.28;0.70;;;10.40;99.90;;;;;;5016196;28;20022;-72
2023/11/10 12:36:57;;;;;;;2.15;0.68;;;10.40;99.90;;;;;;5021530;28;20041;-72
2023/11/10 12:39:23;;;;;;;4.53;0.93;;;10.50;99.90;;;;;;5026315;28;20537;-76
2023/11/10 12:41:51;;;;;;;2.35;1.35;;;10.50;99.90;;;;;;5022596;27;20116;-74
2023/11/10 12:44:21;;;;;;;2.42;1.25;;;10.50;99.90;;;;;;5024576;27;20133;-73
2023/11/10 12:46:56;;;;;;;5.03;1.20;;;10.50;99.90;;;;;;5025125;28;20029;-73
2023/11/10 12:49:29;;;;;;;3.67;1.40;;;10.50;99.90;;;;;;5025286;27;20044;-71
2023/11/10 12:51:57;;;;;;;4.60;1.17;;;10.50;99.90;;;;;;5026748;28;20032;-72